sensor_id;sensor_type;location;lat;lon;timestamp;temperature;humidity
23769;DHT22;12064;50.890;5.424;2023-12-20T00:01:35;15.40;99.90
23769;DHT22;12064;50.890;5.424;2023-12-20T00:10:25;15.40;99.90
23769;DHT22;12064;50.890;5.424;2023-12-20T00:19:16;15.40;99.90
23769;DHT22;12064;50.890;5.424;2023-12-20T00:28:07;15.40;99.90
23769;DHT22;12064;50.890;5.424;2023-12-20T00:36:58;15.40;99.90
23769;DHT22;12064;50.890;5.424;2023-12-20T00:45:48;15.40;99.90
23769;DHT22;12064;50.890;5.424;2023-12-20T00:54:39;15.30;99.90
23769;DHT22;12064;50.890;5.424;2023-12-20T01:03:30;15.30;99.90
23769;DHT22;12064;50.890;5.424;2023-12-20T01:12:20;15.30;99.90
23769;DHT22;12064;50.890;5.424;2023-12-20T01:21:11;15.30;99.90
23769;DHT22;12064;50.890;5.424;2023-12-20T01:30:02;15.30;99.90
23769;DHT22;12064;50.890;5.424;2023-12-20T01:38:53;15.30;99.90
23769;DHT22;12064;50.890;5.424;2023-12-20T01:47:43;15.30;99.90
23769;DHT22;12064;50.890;5.424;2023-12-20T01:56:34;15.30;99.90
23769;DHT22;12064;50.890;5.424;2023-12-20T02:05:25;15.30;99.90
23769;DHT22;12064;50.890;5.424;2023-12-20T02:14:16;15.30;99.90
23769;DHT22;12064;50.890;5.424;2023-12-20T02:23:06;15.30;99.90
23769;DHT22;12064;50.890;5.424;2023-12-20T02:31:57;15.20;99.90
23769;DHT22;12064;50.890;5.424;2023-12-20T02:40:48;15.20;99.90
23769;DHT22;12064;50.890;5.424;2023-12-20T02:49:42;15.20;99.90
23769;DHT22;12064;50.890;5.424;2023-12-20T02:58:32;15.20;99.90
23769;DHT22;12064;50.890;5.424;2023-12-20T03:07:26;15.20;99.90
23769;DHT22;12064;50.890;5.424;2023-12-20T03:16:16;15.20;99.90
23769;DHT22;12064;50.890;5.424;2023-12-20T03:25:08;15.20;99.90
23769;DHT22;12064;50.890;5.424;2023-12-20T03:33:59;15.10;99.90
23769;DHT22;12064;50.890;5.424;2023-12-20T03:42:50;15.20;99.90
23769;DHT22;12064;50.890;5.424;2023-12-20T03:51:40;15.20;99.90
23769;DHT22;12064;50.890;5.424;2023-12-20T04:00:32;15.20;99.90
23769;DHT22;12064;50.890;5.424;2023-12-20T04:09:23;15.10;99.90
23769;DHT22;12064;50.890;5.424;2023-12-20T04:18:13;15.10;99.90
23769;DHT22;12064;50.890;5.424;2023-12-20T04:27:04;15.10;99.90
23769;DHT22;12064;50.890;5.424;2023-12-20T04:35:55;15.10;99.90
23769;DHT22;12064;50.890;5.424;2023-12-20T04:44:45;15.10;99.90
23769;DHT22;12064;50.890;5.424;2023-12-20T04:53:36;15.10;99.90
23769;DHT22;12064;50.890;5.424;2023-12-20T05:02:27;15.10;99.90
23769;DHT22;12064;50.890;5.424;2023-12-20T05:11:18;15.10;99.90
23769;DHT22;12064;50.890;5.424;2023-12-20T05:20:09;15.10;99.90
23769;DHT22;12064;50.890;5.424;2023-12-20T05:28:59;15.10;99.90
23769;DHT22;12064;50.890;5.424;2023-12-20T05:37:50;15.10;99.90
23769;DHT22;12064;50.890;5.424;2023-12-20T05:46:40;15.00;99.90
23769;DHT22;12064;50.890;5.424;2023-12-20T05:55:31;15.00;99.90
23769;DHT22;12064;50.890;5.424;2023-12-20T06:04:22;15.00;99.90
23769;DHT22;12064;50.890;5.424;2023-12-20T06:13:15;15.00;99.90
23769;DHT22;12064;50.890;5.424;2023-12-20T06:22:06;15.00;99.90
23769;DHT22;12064;50.890;5.424;2023-12-20T06:30:59;15.00;99.90
23769;DHT22;12064;50.890;5.424;2023-12-20T06:39:51;15.00;99.90
23769;DHT22;12064;50.890;5.424;2023-12-20T06:48:41;15.00;99.90
23769;DHT22;12064;50.890;5.424;2023-12-20T06:57:34;14.90;99.90
23769;DHT22;12064;50.890;5.424;2023-12-20T07:06:26;14.90;99.90
23769;DHT22;12064;50.890;5.424;2023-12-20T07:15:17;14.90;99.90
23769;DHT22;12064;50.890;5.424;2023-12-20T07:24:07;14.90;99.90
23769;DHT22;12064;50.890;5.424;2023-12-20T07:32:58;14.90;99.90
23769;DHT22;12064;50.890;5.424;2023-12-20T07:41:49;14.90;99.90
23769;DHT22;12064;50.890;5.424;2023-12-20T07:50:39;14.90;99.90
23769;DHT22;12064;50.890;5.424;2023-12-20T07:59:30;14.90;99.90
23769;DHT22;12064;50.890;5.424;2023-12-20T08:08:21;15.00;99.90
23769;DHT22;12064;50.890;5.424;2023-12-20T08:17:12;14.90;99.90
23769;DHT22;12064;50.890;5.424;2023-12-20T08:26:07;15.00;99.90
23769;DHT22;12064;50.890;5.424;2023-12-20T08:34:58;14.90;99.90
23769;DHT22;12064;50.890;5.424;2023-12-20T08:43:48;15.00;99.90
23769;DHT22;12064;50.890;5.424;2023-12-20T08:52:39;15.00;99.90
23769;DHT22;12064;50.890;5.424;2023-12-20T09:01:30;14.90;99.90
23769;DHT22;12064;50.890;5.424;2023-12-20T09:10:20;14.90;99.90
23769;DHT22;12064;50.890;5.424;2023-12-20T09:19:12;15.00;99.90
23769;DHT22;12064;50.890;5.424;2023-12-20T09:28:03;15.00;99.90
23769;DHT22;12064;50.890;5.424;2023-12-20T09:36:54;15.00;99.90
23769;DHT22;12064;50.890;5.424;2023-12-20T09:45:46;15.00;99.90
23769;DHT22;12064;50.890;5.424;2023-12-20T09:54:38;15.00;99.90
23769;DHT22;12064;50.890;5.424;2023-12-20T10:03:30;15.00;99.90
23769;DHT22;12064;50.890;5.424;2023-12-20T10:12:24;15.00;99.90
23769;DHT22;12064;50.890;5.424;2023-12-20T10:21:15;15.00;99.90
23769;DHT22;12064;50.890;5.424;2023-12-20T10:30:06;15.10;99.90
23769;DHT22;12064;50.890;5.424;2023-12-20T10:38:57;15.10;99.90
23769;DHT22;12064;50.890;5.424;2023-12-20T10:47:49;15.10;99.90
23769;DHT22;12064;50.890;5.424;2023-12-20T10:56:40;15.10;99.90
23769;DHT22;12064;50.890;5.424;2023-12-20T11:05:51;15.10;99.90
23769;DHT22;12064;50.890;5.424;2023-12-20T11:14:52;15.10;99.90
23769;DHT22;12064;50.890;5.424;2023-12-20T11:23:43;15.10;99.90
23769;DHT22;12064;50.890;5.424;2023-12-20T11:32:35;15.10;99.90
23769;DHT22;12064;50.890;5.424;2023-12-20T11:41:26;15.10;99.90
23769;DHT22;12064;50.890;5.424;2023-12-20T11:50:18;15.10;99.90
23769;DHT22;12064;50.890;5.424;2023-12-20T11:59:08;15.10;99.90
23769;DHT22;12064;50.890;5.424;2023-12-20T12:07:59;15.10;99.90
23769;DHT22;12064;50.890;5.424;2023-12-20T12:16:50;15.10;99.90
23769;DHT22;12064;50.890;5.424;2023-12-20T12:25:41;15.20;99.90
23769;DHT22;12064;50.890;5.424;2023-12-20T12:34:32;15.20;99.90
23769;DHT22;12064;50.890;5.424;2023-12-20T12:43:22;15.20;99.90
23769;DHT22;12064;50.890;5.424;2023-12-20T12:52:13;15.20;99.90
23769;DHT22;12064;50.890;5.424;2023-12-20T13:01:04;15.20;99.90
23769;DHT22;12064;50.890;5.424;2023-12-20T13:09:54;15.20;99.90
23769;DHT22;12064;50.890;5.424;2023-12-20T13:18:45;15.20;99.90
23769;DHT22;12064;50.890;5.424;2023-12-20T13:27:36;15.20;99.90
23769;DHT22;12064;50.890;5.424;2023-12-20T13:36:26;15.20;99.90
23769;DHT22;12064;50.890;5.424;2023-12-20T13:45:17;15.30;99.90
23769;DHT22;12064;50.890;5.424;2023-12-20T13:54:08;15.20;99.90
23769;DHT22;12064;50.890;5.424;2023-12-20T14:02:58;15.20;99.90
23769;DHT22;12064;50.890;5.424;2023-12-20T14:11:49;15.20;99.90
23769;DHT22;12064;50.890;5.424;2023-12-20T14:20:40;15.30;99.90
23769;DHT22;12064;50.890;5.424;2023-12-20T14:29:32;15.30;99.90
23769;DHT22;12064;50.890;5.424;2023-12-20T14:38:23;15.30;99.90
23769;DHT22;12064;50.890;5.424;2023-12-20T14:47:13;15.30;99.90
23769;DHT22;12064;50.890;5.424;2023-12-20T14:56:05;15.20;99.90
23769;DHT22;12064;50.890;5.424;2023-12-20T15:04:56;15.30;99.90
23769;DHT22;12064;50.890;5.424;2023-12-20T15:13:47;15.30;99.90
23769;DHT22;12064;50.890;5.424;2023-12-20T15:22:45;15.30;99.90
23769;DHT22;12064;50.890;5.424;2023-12-20T15:31:37;15.30;99.90
23769;DHT22;12064;50.890;5.424;2023-12-20T15:40:32;15.30;99.90
23769;DHT22;12064;50.890;5.424;2023-12-20T15:49:22;15.30;99.90
23769;DHT22;12064;50.890;5.424;2023-12-20T15:58:13;15.30;99.90
23769;DHT22;12064;50.890;5.424;2023-12-20T16:07:04;15.30;99.90
23769;DHT22;12064;50.890;5.424;2023-12-20T16:15:54;15.30;99.90
23769;DHT22;12064;50.890;5.424;2023-12-20T16:24:45;15.30;99.90
23769;DHT22;12064;50.890;5.424;2023-12-20T16:33:38;15.20;99.90
23769;DHT22;12064;50.890;5.424;2023-12-20T16:42:29;15.20;99.90
23769;DHT22;12064;50.890;5.424;2023-12-20T16:51:20;15.20;99.90
23769;DHT22;12064;50.890;5.424;2023-12-20T17:00:12;15.30;99.90
23769;DHT22;12064;50.890;5.424;2023-12-20T17:09:03;15.30;99.90
23769;DHT22;12064;50.890;5.424;2023-12-20T17:17:54;15.30;99.90
23769;DHT22;12064;50.890;5.424;2023-12-20T17:26:44;15.30;99.90
23769;DHT22;12064;50.890;5.424;2023-12-20T17:35:35;15.30;99.90
23769;DHT22;12064;50.890;5.424;2023-12-20T17:44:26;15.30;99.90
23769;DHT22;12064;50.890;5.424;2023-12-20T17:53:18;15.30;99.90
23769;DHT22;12064;50.890;5.424;2023-12-20T18:02:08;15.30;99.90
23769;DHT22;12064;50.890;5.424;2023-12-20T18:10:59;15.30;99.90
23769;DHT22;12064;50.890;5.424;2023-12-20T18:19:50;15.30;99.90
23769;DHT22;12064;50.890;5.424;2023-12-20T18:28:40;15.40;99.90
23769;DHT22;12064;50.890;5.424;2023-12-20T18:37:31;15.40;99.90
23769;DHT22;12064;50.890;5.424;2023-12-20T18:46:21;15.40;99.90
23769;DHT22;12064;50.890;5.424;2023-12-20T18:55:13;15.40;99.90
23769;DHT22;12064;50.890;5.424;2023-12-20T19:04:04;15.40;99.90
23769;DHT22;12064;50.890;5.424;2023-12-20T19:12:55;15.40;99.90
23769;DHT22;12064;50.890;5.424;2023-12-20T19:21:45;15.40;99.90
23769;DHT22;12064;50.890;5.424;2023-12-20T19:30:36;15.40;99.90
23769;DHT22;12064;50.890;5.424;2023-12-20T19:39:28;15.50;99.90
23769;DHT22;12064;50.890;5.424;2023-12-20T19:48:19;15.40;99.90
23769;DHT22;12064;50.890;5.424;2023-12-20T19:57:10;15.40;99.90
23769;DHT22;12064;50.890;5.424;2023-12-20T20:06:00;15.40;99.90
23769;DHT22;12064;50.890;5.424;2023-12-20T20:14:51;15.50;99.90
23769;DHT22;12064;50.890;5.424;2023-12-20T20:23:42;15.40;99.90
23769;DHT22;12064;50.890;5.424;2023-12-20T20:32:33;15.40;99.90
23769;DHT22;12064;50.890;5.424;2023-12-20T20:41:23;15.50;99.90
23769;DHT22;12064;50.890;5.424;2023-12-20T20:50:14;15.50;99.90
23769;DHT22;12064;50.890;5.424;2023-12-20T20:59:05;15.50;99.90
23769;DHT22;12064;50.890;5.424;2023-12-20T21:07:55;15.50;99.90
23769;DHT22;12064;50.890;5.424;2023-12-20T21:16:47;15.50;99.90
23769;DHT22;12064;50.890;5.424;2023-12-20T21:25:38;15.50;99.90
23769;DHT22;12064;50.890;5.424;2023-12-20T21:34:28;15.60;99.90
23769;DHT22;12064;50.890;5.424;2023-12-20T21:43:19;15.50;99.90
23769;DHT22;12064;50.890;5.424;2023-12-20T21:52:10;15.50;99.90
23769;DHT22;12064;50.890;5.424;2023-12-20T22:01:00;15.60;99.90
23769;DHT22;12064;50.890;5.424;2023-12-20T22:09:51;15.50;99.90
23769;DHT22;12064;50.890;5.424;2023-12-20T22:18:42;15.50;99.90
23769;DHT22;12064;50.890;5.424;2023-12-20T22:27:35;15.50;99.90
23769;DHT22;12064;50.890;5.424;2023-12-20T22:36:26;15.60;99.90
23769;DHT22;12064;50.890;5.424;2023-12-20T22:45:18;15.50;99.90
23769;DHT22;12064;50.890;5.424;2023-12-20T22:54:09;15.60;99.90
23769;DHT22;12064;50.890;5.424;2023-12-20T23:03:00;15.60;99.90
23769;DHT22;12064;50.890;5.424;2023-12-20T23:11:50;15.60;99.90
23769;DHT22;12064;50.890;5.424;2023-12-20T23:20:41;15.60;99.90
23769;DHT22;12064;50.890;5.424;2023-12-20T23:29:33;15.60;99.90
23769;DHT22;12064;50.890;5.424;2023-12-20T23:38:24;15.60;99.90
23769;DHT22;12064;50.890;5.424;2023-12-20T23:47:15;15.60;99.90
23769;DHT22;12064;50.890;5.424;2023-12-20T23:56:06;15.50;99.90
